sensor_id;sensor_type;location;lat;lon;timestamp;P1;durP1;ratioP1;P2;durP2;ratioP2
5805;SDS011;2929;50.810;8.342;2023-03-05T00:01:14;7.80;;;2.70;;
5805;SDS011;2929;50.810;8.342;2023-03-05T00:03:42;6.00;;;1.77;;
5805;SDS011;2929;50.810;8.342;2023-03-05T00:06:09;7.23;;;2.20;;
5805;SDS011;2929;50.810;8.342;2023-03-05T00:08:37;5.50;;;2.20;;
5805;SDS011;2929;50.810;8.342;2023-03-05T00:11:04;5.77;;;1.93;;
5805;SDS011;2929;50.810;8.342;2023-03-05T00:13:32;7.10;;;2.47;;
5805;SDS011;2929;50.810;8.342;2023-03-05T00:16:01;10.30;;;3.10;;
5805;SDS011;2929;50.810;8.342;2023-03-05T00:18:30;10.43;;;2.80;;
5805;SDS011;2929;50.810;8.342;2023-03-05T00:20:57;4.00;;;2.07;;
5805;SDS011;2929;50.810;8.342;2023-03-05T00:23:24;6.73;;;2.03;;
5805;SDS011;2929;50.810;8.342;2023-03-05T00:25:52;13.27;;;2.60;;
5805;SDS011;2929;50.810;8.342;2023-03-05T00:28:19;8.37;;;2.07;;
5805;SDS011;2929;50.810;8.342;2023-03-05T00:30:47;2.37;;;1.73;;
5805;SDS011;2929;50.810;8.342;2023-03-05T00:33:15;3.70;;;1.90;;
5805;SDS011;2929;50.810;8.342;2023-03-05T00:35:44;6.57;;;1.77;;
5805;SDS011;2929;50.810;8.342;2023-03-05T00:38:12;7.70;;;2.20;;
5805;SDS011;2929;50.810;8.342;2023-03-05T00:40:40;8.20;;;1.80;;
5805;SDS011;2929;50.810;8.342;2023-03-05T00:43:08;8.83;;;2.10;;
5805;SDS011;2929;50.810;8.342;2023-03-05T00:45:35;6.33;;;1.80;;
5805;SDS011;2929;50.810;8.342;2023-03-05T00:48:03;6.20;;;2.30;;
5805;SDS011;2929;50.810;8.342;2023-03-05T00:50:30;3.03;;;1.60;;
5805;SDS011;2929;50.810;8.342;2023-03-05T00:52:59;3.87;;;1.60;;
5805;SDS011;2929;50.810;8.342;2023-03-05T00:55:26;4.33;;;1.77;;
5805;SDS011;2929;50.810;8.342;2023-03-05T00:57:54;4.67;;;1.67;;
5805;SDS011;2929;50.810;8.342;2023-03-05T01:00:21;6.43;;;1.83;;
5805;SDS011;2929;50.810;8.342;2023-03-05T01:02:48;8.50;;;2.00;;
5805;SDS011;2929;50.810;8.342;2023-03-05T01:05:16;5.57;;;2.20;;
5805;SDS011;2929;50.810;8.342;2023-03-05T01:07:43;5.77;;;2.20;;
5805;SDS011;2929;50.810;8.342;2023-03-05T01:10:12;5.33;;;1.60;;
5805;SDS011;2929;50.810;8.342;2023-03-05T01:12:40;4.80;;;1.93;;
5805;SDS011;2929;50.810;8.342;2023-03-05T01:15:07;9.17;;;1.70;;
5805;SDS011;2929;50.810;8.342;2023-03-05T01:17:34;6.40;;;1.33;;
5805;SDS011;2929;50.810;8.342;2023-03-05T01:20:03;5.73;;;1.60;;
5805;SDS011;2929;50.810;8.342;2023-03-05T01:22:31;8.23;;;1.73;;
5805;SDS011;2929;50.810;8.342;2023-03-05T01:24:59;2.63;;;1.43;;
5805;SDS011;2929;50.810;8.342;2023-03-05T01:27:27;7.53;;;1.57;;
5805;SDS011;2929;50.810;8.342;2023-03-05T01:29:55;7.83;;;1.77;;
5805;SDS011;2929;50.810;8.342;2023-03-05T01:32:23;6.13;;;1.10;;
5805;SDS011;2929;50.810;8.342;2023-03-05T01:34:50;5.93;;;1.00;;
5805;SDS011;2929;50.810;8.342;2023-03-05T01:37:17;2.93;;;1.40;;
5805;SDS011;2929;50.810;8.342;2023-03-05T01:39:45;4.47;;;1.03;;
5805;SDS011;2929;50.810;8.342;2023-03-05T01:42:12;2.97;;;1.23;;
5805;SDS011;2929;50.810;8.342;2023-03-05T01:47:23;3.10;;;0.90;;
5805;SDS011;2929;50.810;8.342;2023-03-05T01:49:50;3.33;;;1.20;;
5805;SDS011;2929;50.810;8.342;2023-03-05T01:52:18;3.03;;;1.00;;
5805;SDS011;2929;50.810;8.342;2023-03-05T01:54:48;5.20;;;1.10;;
5805;SDS011;2929;50.810;8.342;2023-03-05T01:57:20;2.97;;;1.00;;
5805;SDS011;2929;50.810;8.342;2023-03-05T01:59:49;4.20;;;1.00;;
5805;SDS011;2929;50.810;8.342;2023-03-05T02:02:17;0.90;;;0.80;;
5805;SDS011;2929;50.810;8.342;2023-03-05T02:04:49;3.33;;;1.00;;
5805;SDS011;2929;50.810;8.342;2023-03-05T02:07:16;2.50;;;0.80;;
5805;SDS011;2929;50.810;8.342;2023-03-05T02:09:44;1.40;;;0.73;;
5805;SDS011;2929;50.810;8.342;2023-03-05T02:12:12;12.17;;;1.00;;
5805;SDS011;2929;50.810;8.342;2023-03-05T02:14:40;2.50;;;1.43;;
5805;SDS011;2929;50.810;8.342;2023-03-05T02:17:08;2.57;;;1.07;;
5805;SDS011;2929;50.810;8.342;2023-03-05T02:19:46;5.70;;;1.20;;
5805;SDS011;2929;50.810;8.342;2023-03-05T02:22:15;3.30;;;1.00;;
5805;SDS011;2929;50.810;8.342;2023-03-05T02:24:43;4.83;;;1.27;;
5805;SDS011;2929;50.810;8.342;2023-03-05T02:27:10;4.93;;;1.30;;
5805;SDS011;2929;50.810;8.342;2023-03-05T02:29:39;1.03;;;0.80;;
5805;SDS011;2929;50.810;8.342;2023-03-05T02:32:08;5.60;;;0.93;;
5805;SDS011;2929;50.810;8.342;2023-03-05T02:34:35;3.53;;;0.97;;
5805;SDS011;2929;50.810;8.342;2023-03-05T02:37:03;7.17;;;1.93;;
5805;SDS011;2929;50.810;8.342;2023-03-05T02:39:36;1.13;;;0.90;;
5805;SDS011;2929;50.810;8.342;2023-03-05T02:42:04;2.80;;;1.30;;
5805;SDS011;2929;50.810;8.342;2023-03-05T02:44:32;1.53;;;0.90;;
5805;SDS011;2929;50.810;8.342;2023-03-05T02:46:59;3.40;;;1.17;;
5805;SDS011;2929;50.810;8.342;2023-03-05T02:49:27;4.53;;;1.47;;
5805;SDS011;2929;50.810;8.342;2023-03-05T02:51:54;5.87;;;1.30;;
5805;SDS011;2929;50.810;8.342;2023-03-05T02:54:22;1.80;;;1.00;;
5805;SDS011;2929;50.810;8.342;2023-03-05T02:56:51;3.23;;;1.27;;
5805;SDS011;2929;50.810;8.342;2023-03-05T02:59:20;1.30;;;1.10;;
5805;SDS011;2929;50.810;8.342;2023-03-05T03:01:47;3.60;;;0.83;;
5805;SDS011;2929;50.810;8.342;2023-03-05T03:04:15;2.33;;;1.07;;
5805;SDS011;2929;50.810;8.342;2023-03-05T03:06:42;1.70;;;1.00;;
5805;SDS011;2929;50.810;8.342;2023-03-05T03:09:09;1.03;;;0.60;;
5805;SDS011;2929;50.810;8.342;2023-03-05T03:11:37;2.27;;;0.90;;
5805;SDS011;2929;50.810;8.342;2023-03-05T03:14:05;1.03;;;0.70;;
5805;SDS011;2929;50.810;8.342;2023-03-05T03:16:33;2.33;;;0.73;;
5805;SDS011;2929;50.810;8.342;2023-03-05T03:19:00;1.30;;;0.80;;
5805;SDS011;2929;50.810;8.342;2023-03-05T03:21:27;2.67;;;0.90;;
5805;SDS011;2929;50.810;8.342;2023-03-05T03:23:55;3.07;;;0.80;;
5805;SDS011;2929;50.810;8.342;2023-03-05T03:26:22;0.70;;;0.50;;
5805;SDS011;2929;50.810;8.342;2023-03-05T03:28:49;1.83;;;0.70;;
5805;SDS011;2929;50.810;8.342;2023-03-05T03:31:18;2.50;;;0.97;;
5805;SDS011;2929;50.810;8.342;2023-03-05T03:33:45;2.30;;;0.70;;
5805;SDS011;2929;50.810;8.342;2023-03-05T03:36:13;5.83;;;0.87;;
5805;SDS011;2929;50.810;8.342;2023-03-05T03:38:40;0.90;;;0.90;;
5805;SDS011;2929;50.810;8.342;2023-03-05T03:41:07;2.30;;;0.83;;
5805;SDS011;2929;50.810;8.342;2023-03-05T03:43:35;0.87;;;0.63;;
5805;SDS011;2929;50.810;8.342;2023-03-05T03:46:03;2.67;;;0.80;;
5805;SDS011;2929;50.810;8.342;2023-03-05T03:48:32;1.43;;;0.80;;
5805;SDS011;2929;50.810;8.342;2023-03-05T03:51:02;4.00;;;1.00;;
5805;SDS011;2929;50.810;8.342;2023-03-05T03:53:29;4.30;;;1.00;;
5805;SDS011;2929;50.810;8.342;2023-03-05T03:55:57;2.20;;;0.80;;
5805;SDS011;2929;50.810;8.342;2023-03-05T03:58:24;0.90;;;0.70;;
5805;SDS011;2929;50.810;8.342;2023-03-05T04:00:52;1.77;;;0.83;;
5805;SDS011;2929;50.810;8.342;2023-03-05T04:03:19;2.00;;;0.80;;
5805;SDS011;2929;50.810;8.342;2023-03-05T04:05:48;1.50;;;0.70;;
5805;SDS011;2929;50.810;8.342;2023-03-05T04:08:15;0.93;;;0.80;;
5805;SDS011;2929;50.810;8.342;2023-03-05T04:10:42;3.30;;;1.03;;
5805;SDS011;2929;50.810;8.342;2023-03-05T04:13:10;2.80;;;0.83;;
5805;SDS011;2929;50.810;8.342;2023-03-05T04:15:38;0.90;;;0.70;;
5805;SDS011;2929;50.810;8.342;2023-03-05T04:18:05;9.63;;;1.27;;
5805;SDS011;2929;50.810;8.342;2023-03-05T04:20:33;5.50;;;0.90;;
5805;SDS011;2929;50.810;8.342;2023-03-05T04:23:02;3.70;;;1.50;;
5805;SDS011;2929;50.810;8.342;2023-03-05T04:25:30;1.67;;;0.73;;
5805;SDS011;2929;50.810;8.342;2023-03-05T04:27:57;6.20;;;1.40;;
5805;SDS011;2929;50.810;8.342;2023-03-05T04:30:24;3.80;;;1.17;;
5805;SDS011;2929;50.810;8.342;2023-03-05T04:32:52;1.30;;;1.20;;
5805;SDS011;2929;50.810;8.342;2023-03-05T04:35:19;3.43;;;1.30;;
5805;SDS011;2929;50.810;8.342;2023-03-05T04:37:46;2.23;;;1.00;;
5805;SDS011;2929;50.810;8.342;2023-03-05T04:40:15;1.57;;;0.73;;
5805;SDS011;2929;50.810;8.342;2023-03-05T04:42:43;4.30;;;0.97;;
5805;SDS011;2929;50.810;8.342;2023-03-05T04:45:10;4.03;;;1.20;;
5805;SDS011;2929;50.810;8.342;2023-03-05T04:47:38;2.30;;;1.10;;
5805;SDS011;2929;50.810;8.342;2023-03-05T04:50:06;1.83;;;1.00;;
5805;SDS011;2929;50.810;8.342;2023-03-05T04:52:33;5.40;;;0.90;;
5805;SDS011;2929;50.810;8.342;2023-03-05T04:55:01;1.23;;;0.93;;
5805;SDS011;2929;50.810;8.342;2023-03-05T04:57:30;1.90;;;1.00;;
5805;SDS011;2929;50.810;8.342;2023-03-05T04:59:57;2.00;;;1.00;;
5805;SDS011;2929;50.810;8.342;2023-03-05T05:02:24;3.97;;;1.10;;
5805;SDS011;2929;50.810;8.342;2023-03-05T05:04:52;1.33;;;1.20;;
5805;SDS011;2929;50.810;8.342;2023-03-05T05:07:19;3.33;;;1.40;;
5805;SDS011;2929;50.810;8.342;2023-03-05T05:09:46;3.20;;;1.67;;
5805;SDS011;2929;50.810;8.342;2023-03-05T05:12:14;6.60;;;1.27;;
5805;SDS011;2929;50.810;8.342;2023-03-05T05:14:43;3.07;;;1.40;;
5805;SDS011;2929;50.810;8.342;2023-03-05T05:17:10;4.00;;;1.60;;
5805;SDS011;2929;50.810;8.342;2023-03-05T05:19:37;1.00;;;1.00;;
5805;SDS011;2929;50.810;8.342;2023-03-05T05:22:05;1.37;;;0.90;;
5805;SDS011;2929;50.810;8.342;2023-03-05T05:24:32;4.87;;;1.80;;
5805;SDS011;2929;50.810;8.342;2023-03-05T05:26:59;3.27;;;1.30;;
5805;SDS011;2929;50.810;8.342;2023-03-05T05:29:27;2.70;;;1.40;;
5805;SDS011;2929;50.810;8.342;2023-03-05T05:31:55;2.77;;;1.50;;
5805;SDS011;2929;50.810;8.342;2023-03-05T05:34:23;3.00;;;1.70;;
5805;SDS011;2929;50.810;8.342;2023-03-05T05:36:50;3.97;;;1.83;;
5805;SDS011;2929;50.810;8.342;2023-03-05T05:39:17;2.37;;;1.13;;
5805;SDS011;2929;50.810;8.342;2023-03-05T05:41:45;9.27;;;2.50;;
5805;SDS011;2929;50.810;8.342;2023-03-05T05:44:12;7.93;;;2.03;;
5805;SDS011;2929;50.810;8.342;2023-03-05T05:46:39;5.47;;;2.20;;
5805;SDS011;2929;50.810;8.342;2023-03-05T05:49:08;15.37;;;2.50;;
5805;SDS011;2929;50.810;8.342;2023-03-05T05:51:35;10.80;;;2.07;;
5805;SDS011;2929;50.810;8.342;2023-03-05T05:54:03;6.90;;;2.40;;
5805;SDS011;2929;50.810;8.342;2023-03-05T05:56:30;6.57;;;2.30;;
5805;SDS011;2929;50.810;8.342;2023-03-05T05:58:58;7.50;;;2.67;;
5805;SDS011;2929;50.810;8.342;2023-03-05T06:01:26;5.00;;;1.73;;
5805;SDS011;2929;50.810;8.342;2023-03-05T06:03:54;3.57;;;1.83;;
5805;SDS011;2929;50.810;8.342;2023-03-05T06:06:23;4.60;;;1.93;;
5805;SDS011;2929;50.810;8.342;2023-03-05T06:08:51;5.07;;;2.17;;
5805;SDS011;2929;50.810;8.342;2023-03-05T06:11:18;10.73;;;3.07;;
5805;SDS011;2929;50.810;8.342;2023-03-05T06:13:46;8.93;;;2.50;;
5805;SDS011;2929;50.810;8.342;2023-03-05T06:16:15;8.17;;;2.87;;
5805;SDS011;2929;50.810;8.342;2023-03-05T06:18:42;9.17;;;2.40;;
5805;SDS011;2929;50.810;8.342;2023-03-05T06:21:10;7.50;;;3.97;;
5805;SDS011;2929;50.810;8.342;2023-03-05T06:23:39;9.63;;;3.50;;
5805;SDS011;2929;50.810;8.342;2023-03-05T06:26:07;8.73;;;3.80;;
5805;SDS011;2929;50.810;8.342;2023-03-05T06:28:36;8.80;;;3.33;;
5805;SDS011;2929;50.810;8.342;2023-03-05T06:31:04;15.30;;;4.60;;
5805;SDS011;2929;50.810;8.342;2023-03-05T06:33:32;8.63;;;3.40;;
5805;SDS011;2929;50.810;8.342;2023-03-05T06:36:01;5.93;;;3.13;;
5805;SDS011;2929;50.810;8.342;2023-03-05T06:38:29;11.33;;;3.37;;
5805;SDS011;2929;50.810;8.342;2023-03-05T06:41:00;10.13;;;3.40;;
5805;SDS011;2929;50.810;8.342;2023-03-05T06:43:29;9.13;;;3.53;;
5805;SDS011;2929;50.810;8.342;2023-03-05T06:46:01;4.63;;;3.13;;
5805;SDS011;2929;50.810;8.342;2023-03-05T06:48:28;12.57;;;3.40;;
5805;SDS011;2929;50.810;8.342;2023-03-05T06:50:56;11.67;;;4.10;;
5805;SDS011;2929;50.810;8.342;2023-03-05T06:53:23;11.33;;;3.73;;
5805;SDS011;2929;50.810;8.342;2023-03-05T06:55:51;10.67;;;3.83;;
5805;SDS011;2929;50.810;8.342;2023-03-05T06:58:20;6.53;;;3.00;;
5805;SDS011;2929;50.810;8.342;2023-03-05T07:00:47;9.50;;;5.00;;
5805;SDS011;2929;50.810;8.342;2023-03-05T07:03:15;14.20;;;3.50;;
5805;SDS011;2929;50.810;8.342;2023-03-05T07:05:42;10.67;;;3.80;;
5805;SDS011;2929;50.810;8.342;2023-03-05T07:08:10;5.07;;;2.53;;
5805;SDS011;2929;50.810;8.342;2023-03-05T07:10:37;6.93;;;3.50;;
5805;SDS011;2929;50.810;8.342;2023-03-05T07:13:05;5.53;;;2.80;;
5805;SDS011;2929;50.810;8.342;2023-03-05T07:15:36;9.83;;;2.70;;
5805;SDS011;2929;50.810;8.342;2023-03-05T07:18:03;7.20;;;3.87;;
5805;SDS011;2929;50.810;8.342;2023-03-05T07:20:32;4.87;;;2.50;;
5805;SDS011;2929;50.810;8.342;2023-03-05T07:22:59;5.87;;;3.07;;
5805;SDS011;2929;50.810;8.342;2023-03-05T07:25:27;3.70;;;2.10;;
5805;SDS011;2929;50.810;8.342;2023-03-05T07:27:54;5.37;;;2.40;;
5805;SDS011;2929;50.810;8.342;2023-03-05T07:30:22;7.07;;;2.00;;
5805;SDS011;2929;50.810;8.342;2023-03-05T07:32:51;5.70;;;2.13;;
5805;SDS011;2929;50.810;8.342;2023-03-05T07:35:18;3.10;;;1.73;;
5805;SDS011;2929;50.810;8.342;2023-03-05T07:37:46;3.60;;;2.20;;
5805;SDS011;2929;50.810;8.342;2023-03-05T07:40:13;4.17;;;2.97;;
5805;SDS011;2929;50.810;8.342;2023-03-05T07:42:41;6.30;;;3.37;;
5805;SDS011;2929;50.810;8.342;2023-03-05T07:45:21;6.40;;;3.20;;
5805;SDS011;2929;50.810;8.342;2023-03-05T07:47:48;7.00;;;3.10;;
5805;SDS011;2929;50.810;8.342;2023-03-05T07:50:17;8.03;;;3.20;;
5805;SDS011;2929;50.810;8.342;2023-03-05T07:52:44;7.10;;;3.73;;
5805;SDS011;2929;50.810;8.342;2023-03-05T07:55:12;8.40;;;3.47;;
5805;SDS011;2929;50.810;8.342;2023-03-05T07:57:39;6.73;;;3.20;;
5805;SDS011;2929;50.810;8.342;2023-03-05T08:00:07;9.17;;;3.80;;
5805;SDS011;2929;50.810;8.342;2023-03-05T08:02:38;9.07;;;4.73;;
5805;SDS011;2929;50.810;8.342;2023-03-05T08:05:06;12.13;;;6.20;;
5805;SDS011;2929;50.810;8.342;2023-03-05T08:07:34;11.43;;;5.60;;
5805;SDS011;2929;50.810;8.342;2023-03-05T08:10:02;10.73;;;5.80;;
5805;SDS011;2929;50.810;8.342;2023-03-05T08:12:30;12.80;;;6.30;;
5805;SDS011;2929;50.810;8.342;2023-03-05T08:14:57;14.73;;;7.07;;
5805;SDS011;2929;50.810;8.342;2023-03-05T08:17:25;14.03;;;6.80;;
5805;SDS011;2929;50.810;8.342;2023-03-05T08:19:53;18.03;;;7.53;;
5805;SDS011;2929;50.810;8.342;2023-03-05T08:22:23;19.17;;;7.93;;
5805;SDS011;2929;50.810;8.342;2023-03-05T08:24:52;12.70;;;6.20;;
5805;SDS011;2929;50.810;8.342;2023-03-05T08:27:19;15.50;;;7.10;;
5805;SDS011;2929;50.810;8.342;2023-03-05T08:29:47;15.60;;;6.67;;
5805;SDS011;2929;50.810;8.342;2023-03-05T08:32:14;14.50;;;5.97;;
5805;SDS011;2929;50.810;8.342;2023-03-05T08:34:41;11.60;;;6.30;;
5805;SDS011;2929;50.810;8.342;2023-03-05T08:37:09;13.43;;;6.77;;
5805;SDS011;2929;50.810;8.342;2023-03-05T08:39:36;17.27;;;6.83;;
5805;SDS011;2929;50.810;8.342;2023-03-05T08:42:05;14.93;;;6.53;;
5805;SDS011;2929;50.810;8.342;2023-03-05T08:44:33;11.73;;;7.50;;
5805;SDS011;2929;50.810;8.342;2023-03-05T08:47:00;15.83;;;6.17;;
5805;SDS011;2929;50.810;8.342;2023-03-05T08:49:27;13.03;;;5.60;;
5805;SDS011;2929;50.810;8.342;2023-03-05T08:51:55;7.70;;;4.80;;
5805;SDS011;2929;50.810;8.342;2023-03-05T08:54:22;10.43;;;5.57;;
5805;SDS011;2929;50.810;8.342;2023-03-05T08:56:49;9.60;;;5.07;;
5805;SDS011;2929;50.810;8.342;2023-03-05T08:59:18;8.43;;;4.73;;
5805;SDS011;2929;50.810;8.342;2023-03-05T09:01:46;10.87;;;5.00;;
5805;SDS011;2929;50.810;8.342;2023-03-05T09:04:13;8.53;;;4.00;;
5805;SDS011;2929;50.810;8.342;2023-03-05T09:06:40;7.70;;;4.20;;
5805;SDS011;2929;50.810;8.342;2023-03-05T09:09:08;18.10;;;4.80;;
5805;SDS011;2929;50.810;8.342;2023-03-05T09:11:36;9.80;;;4.30;;
5805;SDS011;2929;50.810;8.342;2023-03-05T09:14:04;7.43;;;2.57;;
5805;SDS011;2929;50.810;8.342;2023-03-05T09:16:33;4.07;;;2.43;;
5805;SDS011;2929;50.810;8.342;2023-03-05T09:19:02;6.37;;;2.70;;
5805;SDS011;2929;50.810;8.342;2023-03-05T09:21:29;9.53;;;3.20;;
5805;SDS011;2929;50.810;8.342;2023-03-05T09:23:57;4.43;;;3.33;;
5805;SDS011;2929;50.810;8.342;2023-03-05T09:26:24;4.03;;;3.10;;
5805;SDS011;2929;50.810;8.342;2023-03-05T09:28:52;9.03;;;3.30;;
5805;SDS011;2929;50.810;8.342;2023-03-05T09:31:20;6.60;;;3.30;;
5805;SDS011;2929;50.810;8.342;2023-03-05T09:33:49;11.07;;;3.37;;
5805;SDS011;2929;50.810;8.342;2023-03-05T09:36:17;6.33;;;2.80;;
5805;SDS011;2929;50.810;8.342;2023-03-05T09:38:45;8.67;;;3.33;;
5805;SDS011;2929;50.810;8.342;2023-03-05T09:41:14;9.80;;;2.17;;
5805;SDS011;2929;50.810;8.342;2023-03-05T09:43:43;8.33;;;3.03;;
5805;SDS011;2929;50.810;8.342;2023-03-05T09:46:16;6.40;;;2.97;;
5805;SDS011;2929;50.810;8.342;2023-03-05T09:48:49;5.17;;;2.47;;
5805;SDS011;2929;50.810;8.342;2023-03-05T09:51:20;7.17;;;3.30;;
5805;SDS011;2929;50.810;8.342;2023-03-05T09:53:49;12.00;;;3.00;;
5805;SDS011;2929;50.810;8.342;2023-03-05T09:56:18;6.43;;;3.07;;
5805;SDS011;2929;50.810;8.342;2023-03-05T09:58:47;7.20;;;2.47;;
5805;SDS011;2929;50.810;8.342;2023-03-05T10:01:16;4.87;;;2.07;;
5805;SDS011;2929;50.810;8.342;2023-03-05T10:03:49;10.20;;;3.20;;
5805;SDS011;2929;50.810;8.342;2023-03-05T10:06:19;3.67;;;2.67;;
5805;SDS011;2929;50.810;8.342;2023-03-05T10:08:50;6.13;;;3.00;;
5805;SDS011;2929;50.810;8.342;2023-03-05T10:14:11;4.57;;;2.40;;
5805;SDS011;2929;50.810;8.342;2023-03-05T10:16:44;12.77;;;2.37;;
5805;SDS011;2929;50.810;8.342;2023-03-05T10:19:16;3.00;;;2.00;;
5805;SDS011;2929;50.810;8.342;2023-03-05T10:21:45;7.47;;;2.33;;
5805;SDS011;2929;50.810;8.342;2023-03-05T10:24:17;5.70;;;2.40;;
5805;SDS011;2929;50.810;8.342;2023-03-05T10:26:51;4.87;;;1.90;;
5805;SDS011;2929;50.810;8.342;2023-03-05T10:29:33;6.90;;;2.10;;
5805;SDS011;2929;50.810;8.342;2023-03-05T10:32:05;8.97;;;2.50;;
5805;SDS011;2929;50.810;8.342;2023-03-05T10:37:45;8.33;;;2.37;;
5805;SDS011;2929;50.810;8.342;2023-03-05T10:40:20;3.73;;;2.30;;
5805;SDS011;2929;50.810;8.342;2023-03-05T10:42:53;3.40;;;2.17;;
5805;SDS011;2929;50.810;8.342;2023-03-05T10:45:25;4.47;;;2.27;;
5805;SDS011;2929;50.810;8.342;2023-03-05T10:47:56;5.03;;;2.00;;
5805;SDS011;2929;50.810;8.342;2023-03-05T10:50:26;6.43;;;2.50;;
5805;SDS011;2929;50.810;8.342;2023-03-05T10:52:59;7.30;;;2.40;;
5805;SDS011;2929;50.810;8.342;2023-03-05T10:55:30;3.53;;;2.40;;
5805;SDS011;2929;50.810;8.342;2023-03-05T10:57:58;3.87;;;2.60;;
5805;SDS011;2929;50.810;8.342;2023-03-05T11:00:27;4.13;;;2.60;;
5805;SDS011;2929;50.810;8.342;2023-03-05T11:02:57;4.50;;;2.50;;
5805;SDS011;2929;50.810;8.342;2023-03-05T11:05:32;4.80;;;2.53;;
5805;SDS011;2929;50.810;8.342;2023-03-05T11:08:09;7.23;;;3.50;;
5805;SDS011;2929;50.810;8.342;2023-03-05T11:10:44;7.93;;;2.83;;
5805;SDS011;2929;50.810;8.342;2023-03-05T11:13:20;6.03;;;2.87;;
5805;SDS011;2929;50.810;8.342;2023-03-05T11:15:57;3.90;;;2.70;;
5805;SDS011;2929;50.810;8.342;2023-03-05T11:18:24;3.73;;;2.50;;
5805;SDS011;2929;50.810;8.342;2023-03-05T11:21:05;5.90;;;2.73;;
5805;SDS011;2929;50.810;8.342;2023-03-05T11:23:34;4.50;;;2.70;;
5805;SDS011;2929;50.810;8.342;2023-03-05T11:26:02;6.23;;;3.30;;
5805;SDS011;2929;50.810;8.342;2023-03-05T11:28:32;6.57;;;3.30;;
5805;SDS011;2929;50.810;8.342;2023-03-05T11:31:01;4.50;;;3.13;;
5805;SDS011;2929;50.810;8.342;2023-03-05T11:33:29;6.93;;;3.20;;
5805;SDS011;2929;50.810;8.342;2023-03-05T11:36:10;5.03;;;2.70;;
5805;SDS011;2929;50.810;8.342;2023-03-05T11:38:45;10.17;;;3.00;;
5805;SDS011;2929;50.810;8.342;2023-03-05T11:41:13;4.43;;;2.40;;
5805;SDS011;2929;50.810;8.342;2023-03-05T11:43:40;5.53;;;2.23;;
5805;SDS011;2929;50.810;8.342;2023-03-05T11:46:09;2.20;;;1.83;;
5805;SDS011;2929;50.810;8.342;2023-03-05T11:48:38;6.33;;;2.83;;
5805;SDS011;2929;50.810;8.342;2023-03-05T11:51:07;8.90;;;2.37;;
5805;SDS011;2929;50.810;8.342;2023-03-05T11:53:35;4.50;;;2.60;;
5805;SDS011;2929;50.810;8.342;2023-03-05T11:56:05;5.97;;;2.93;;
5805;SDS011;2929;50.810;8.342;2023-03-05T11:58:38;5.47;;;2.53;;
5805;SDS011;2929;50.810;8.342;2023-03-05T12:01:07;4.10;;;2.30;;
5805;SDS011;2929;50.810;8.342;2023-03-05T12:03:40;7.43;;;3.00;;
5805;SDS011;2929;50.810;8.342;2023-03-05T12:06:09;3.10;;;2.70;;
5805;SDS011;2929;50.810;8.342;2023-03-05T12:08:41;7.30;;;2.50;;
5805;SDS011;2929;50.810;8.342;2023-03-05T12:11:13;6.17;;;2.90;;
5805;SDS011;2929;50.810;8.342;2023-03-05T12:13:42;5.03;;;3.17;;
5805;SDS011;2929;50.810;8.342;2023-03-05T12:16:13;4.10;;;2.77;;
5805;SDS011;2929;50.810;8.342;2023-03-05T12:18:47;7.97;;;3.33;;
5805;SDS011;2929;50.810;8.342;2023-03-05T12:21:20;4.30;;;3.13;;
5805;SDS011;2929;50.810;8.342;2023-03-05T12:23:53;6.30;;;2.87;;
5805;SDS011;2929;50.810;8.342;2023-03-05T12:29:25;4.57;;;3.10;;
5805;SDS011;2929;50.810;8.342;2023-03-05T12:35:23;7.83;;;3.10;;
5805;SDS011;2929;50.810;8.342;2023-03-05T12:37:59;5.37;;;3.40;;
5805;SDS011;2929;50.810;8.342;2023-03-05T12:40:28;9.97;;;3.93;;
5805;SDS011;2929;50.810;8.342;2023-03-05T12:42:56;6.33;;;4.13;;
5805;SDS011;2929;50.810;8.342;2023-03-05T12:45:27;5.70;;;3.73;;
5805;SDS011;2929;50.810;8.342;2023-03-05T12:50:47;5.20;;;4.00;;
5805;SDS011;2929;50.810;8.342;2023-03-05T12:53:17;6.67;;;4.47;;
5805;SDS011;2929;50.810;8.342;2023-03-05T12:55:48;10.17;;;4.40;;
5805;SDS011;2929;50.810;8.342;2023-03-05T12:58:23;4.53;;;3.30;;
5805;SDS011;2929;50.810;8.342;2023-03-05T13:01:01;6.57;;;4.30;;
5805;SDS011;2929;50.810;8.342;2023-03-05T13:03:33;11.20;;;4.53;;
5805;SDS011;2929;50.810;8.342;2023-03-05T13:06:03;8.20;;;3.83;;
5805;SDS011;2929;50.810;8.342;2023-03-05T13:08:32;6.57;;;3.20;;
5805;SDS011;2929;50.810;8.342;2023-03-05T13:11:02;6.87;;;4.10;;
5805;SDS011;2929;50.810;8.342;2023-03-05T13:13:32;11.13;;;4.37;;
5805;SDS011;2929;50.810;8.342;2023-03-05T13:16:04;7.20;;;4.50;;
5805;SDS011;2929;50.810;8.342;2023-03-05T13:18:31;6.57;;;3.97;;
5805;SDS011;2929;50.810;8.342;2023-03-05T13:21:00;5.20;;;3.63;;
5805;SDS011;2929;50.810;8.342;2023-03-05T13:23:29;15.33;;;4.17;;
5805;SDS011;2929;50.810;8.342;2023-03-05T13:25:58;11.93;;;4.60;;
5805;SDS011;2929;50.810;8.342;2023-03-05T13:28:30;6.17;;;4.30;;
5805;SDS011;2929;50.810;8.342;2023-03-05T13:30:58;9.40;;;4.50;;
5805;SDS011;2929;50.810;8.342;2023-03-05T13:33:29;6.40;;;4.40;;
5805;SDS011;2929;50.810;8.342;2023-03-05T13:35:58;5.43;;;4.30;;
5805;SDS011;2929;50.810;8.342;2023-03-05T13:38:27;9.57;;;4.23;;
5805;SDS011;2929;50.810;8.342;2023-03-05T13:41:02;10.90;;;5.00;;
5805;SDS011;2929;50.810;8.342;2023-03-05T13:43:31;7.97;;;4.60;;
5805;SDS011;2929;50.810;8.342;2023-03-05T13:45:59;6.40;;;4.50;;
5805;SDS011;2929;50.810;8.342;2023-03-05T13:48:27;6.13;;;3.90;;
5805;SDS011;2929;50.810;8.342;2023-03-05T13:50:55;5.03;;;3.60;;
5805;SDS011;2929;50.810;8.342;2023-03-05T13:53:24;5.77;;;3.70;;
5805;SDS011;2929;50.810;8.342;2023-03-05T13:55:53;8.23;;;2.83;;
5805;SDS011;2929;50.810;8.342;2023-03-05T14:01:12;8.80;;;4.40;;
5805;SDS011;2929;50.810;8.342;2023-03-05T14:03:47;9.67;;;3.63;;
5805;SDS011;2929;50.810;8.342;2023-03-05T14:06:16;11.30;;;4.53;;
5805;SDS011;2929;50.810;8.342;2023-03-05T14:08:47;10.07;;;4.23;;
5805;SDS011;2929;50.810;8.342;2023-03-05T14:11:16;15.67;;;4.87;;
5805;SDS011;2929;50.810;8.342;2023-03-05T14:13:44;7.83;;;5.10;;
5805;SDS011;2929;50.810;8.342;2023-03-05T14:16:14;7.57;;;3.90;;
5805;SDS011;2929;50.810;8.342;2023-03-05T14:18:55;11.80;;;4.10;;
5805;SDS011;2929;50.810;8.342;2023-03-05T14:21:23;5.47;;;4.70;;
5805;SDS011;2929;50.810;8.342;2023-03-05T14:23:51;7.13;;;4.37;;
5805;SDS011;2929;50.810;8.342;2023-03-05T14:26:26;6.27;;;4.30;;
5805;SDS011;2929;50.810;8.342;2023-03-05T14:28:56;6.90;;;4.67;;
5805;SDS011;2929;50.810;8.342;2023-03-05T14:31:25;4.73;;;3.60;;
5805;SDS011;2929;50.810;8.342;2023-03-05T14:34:00;6.13;;;4.20;;
5805;SDS011;2929;50.810;8.342;2023-03-05T14:36:29;15.33;;;4.70;;
5805;SDS011;2929;50.810;8.342;2023-03-05T14:38:57;9.77;;;4.10;;
5805;SDS011;2929;50.810;8.342;2023-03-05T14:41:32;6.63;;;4.43;;
5805;SDS011;2929;50.810;8.342;2023-03-05T14:44:04;8.30;;;4.40;;
5805;SDS011;2929;50.810;8.342;2023-03-05T14:46:37;8.90;;;4.70;;
5805;SDS011;2929;50.810;8.342;2023-03-05T14:49:05;6.40;;;4.27;;
5805;SDS011;2929;50.810;8.342;2023-03-05T14:51:34;9.90;;;4.43;;
5805;SDS011;2929;50.810;8.342;2023-03-05T14:54:03;8.10;;;5.27;;
5805;SDS011;2929;50.810;8.342;2023-03-05T14:56:30;9.37;;;4.77;;
5805;SDS011;2929;50.810;8.342;2023-03-05T14:58:58;8.07;;;5.47;;
5805;SDS011;2929;50.810;8.342;2023-03-05T15:01:26;8.40;;;5.70;;
5805;SDS011;2929;50.810;8.342;2023-03-05T15:03:53;8.63;;;4.97;;
5805;SDS011;2929;50.810;8.342;2023-03-05T15:06:23;8.60;;;5.30;;
5805;SDS011;2929;50.810;8.342;2023-03-05T15:08:54;8.57;;;5.10;;
5805;SDS011;2929;50.810;8.342;2023-03-05T15:11:21;11.47;;;5.60;;
5805;SDS011;2929;50.810;8.342;2023-03-05T15:13:48;11.20;;;5.60;;
5805;SDS011;2929;50.810;8.342;2023-03-05T15:16:16;11.50;;;6.30;;
5805;SDS011;2929;50.810;8.342;2023-03-05T15:18:44;9.00;;;5.77;;
5805;SDS011;2929;50.810;8.342;2023-03-05T15:21:11;11.17;;;6.00;;
5805;SDS011;2929;50.810;8.342;2023-03-05T15:23:39;9.43;;;6.50;;
5805;SDS011;2929;50.810;8.342;2023-03-05T15:26:10;15.93;;;6.47;;
5805;SDS011;2929;50.810;8.342;2023-03-05T15:28:41;9.40;;;7.03;;
5805;SDS011;2929;50.810;8.342;2023-03-05T15:31:09;13.20;;;7.40;;
5805;SDS011;2929;50.810;8.342;2023-03-05T15:33:36;9.57;;;6.80;;
5805;SDS011;2929;50.810;8.342;2023-03-05T15:36:06;12.33;;;7.50;;
5805;SDS011;2929;50.810;8.342;2023-03-05T15:38:34;12.57;;;7.33;;
5805;SDS011;2929;50.810;8.342;2023-03-05T15:41:04;11.47;;;6.90;;
5805;SDS011;2929;50.810;8.342;2023-03-05T15:43:31;13.03;;;6.83;;